Terminal Aerodrome Forecast
Issued by NWS Des Moines, IA

Home | Current Version | Previous Version | Text Only | Print | Product List | Glossary On
Versions: 1 2 3 4 5 6 7 8 9 10 11 12 13 14 15 16 17 18 19 20 21 22 23 24
000
FTUS43 KDMX 292320
TAFDSM
TAF
KDSM 292320Z 3000/3024 08016G24KT 2SM -RA OVC007
      TEMPO 3002/3005 3SM TSRA OVC006CB
     FM300600 07013G20KT 3SM -SHRA OVC003
     FM301400 03012KT 4SM BR OVC007
     FM302000 01010KT 3SM BR OVC010=

USA.gov is the U.S. government's official web portal to all federal, state and local government web resources and services.